Time;durP1;ratioP1;P1;durP2;ratioP2;P2;SDS_P1;SDS_P2;PMS_P1;PMS_P2;Temp;Humidity;BMP_temperature;BMP_pressure;BME280_temperature;BME280_humidity;BME280_pressure;Samples;Min_cycle;Max_cycle;Signal;HPM_P1;HPM_P2
2020/12/14 00:00:01;;;;;;;6.47;2.00;;;;;;;9.69;69.52;100586.19;4994956;28;20077;-82
2020/12/14 00:02:29;;;;;;;8.13;2.25;;;;;;;9.67;69.46;100577.41;4994622;28;20049;-83
2020/12/14 00:04:56;;;;;;;6.05;2.53;;;;;;;9.84;68.91;100592.03;4994538;28;20043;-83
2020/12/14 00:07:23;;;;;;;5.30;2.20;;;;;;;9.66;69.20;100580.94;4995238;28;20050;-82
2020/12/14 00:09:50;;;;;;;7.05;2.33;;;;;;;9.68;69.44;100578.25;4994709;28;20362;-83
2020/12/14 00:12:16;;;;;;;6.80;2.00;;;;;;;9.81;69.05;100563.03;4994877;28;20018;-83
2020/12/14 00:14:43;;;;;;;6.68;2.10;;;;;;;9.60;69.78;100565.19;4994961;28;20034;-83
2020/12/14 00:17:09;;;;;;;6.13;2.17;;;;;;;9.63;69.87;100556.31;4995022;28;20026;-83
2020/12/14 00:19:36;;;;;;;9.50;2.00;;;;;;;9.81;69.27;100560.38;4994714;28;20026;-83
2020/12/14 00:22:02;;;;;;;4.90;2.33;;;;;;;9.83;68.87;100553.25;4994365;28;20027;-83
2020/12/14 00:24:29;;;;;;;8.00;2.08;;;;;;;9.86;69.12;100554.06;4995162;28;20026;-82
2020/12/14 00:26:55;;;;;;;10.77;2.83;;;;;;;9.80;69.19;100554.19;4994609;28;20078;-83
2020/12/14 00:29:22;;;;;;;4.72;2.05;;;;;;;9.90;69.09;100556.66;4993546;28;20022;-82
2020/12/14 00:31:54;;;;;;;5.47;1.80;;;;;;;9.98;69.02;100567.94;4994957;28;20046;-83
2020/12/14 00:34:23;;;;;;;12.40;2.67;;;;;;;9.99;68.59;100554.69;4991833;28;20410;-82
2020/12/14 00:36:50;;;;;;;5.03;1.88;;;;;;;9.94;68.92;100551.25;4994571;28;20037;-83
2020/12/14 00:39:16;;;;;;;9.13;1.90;;;;;;;9.88;69.08;100546.97;4992965;28;20394;-84
2020/12/14 00:41:43;;;;;;;6.15;2.75;;;;;;;9.87;69.49;100554.94;4994618;28;20025;-83
2020/12/14 00:44:10;;;;;;;5.97;3.15;;;;;;;9.96;68.95;100544.16;4993606;28;20034;-84
2020/12/14 00:46:36;;;;;;;6.72;2.22;;;;;;;9.98;68.87;100545.00;4994173;28;20066;-83
2020/12/14 00:49:03;;;;;;;5.00;1.90;;;;;;;9.94;69.36;100543.28;4994260;28;20172;-84
2020/12/14 00:51:30;;;;;;;4.75;2.22;;;;;;;10.07;68.54;100540.38;4993934;28;20028;-83
2020/12/14 00:53:58;;;;;;;8.73;2.40;;;;;;;10.10;68.85;100546.47;4994100;28;20033;-82
2020/12/14 00:56:25;;;;;;;5.70;1.77;;;;;;;10.10;68.80;100545.63;4994461;28;20026;-83
2020/12/14 00:58:51;;;;;;;8.13;1.95;;;;;;;10.11;68.76;100545.56;4994257;28;20024;-82
2020/12/14 01:01:19;;;;;;;4.25;2.10;;;;;;;10.18;68.57;100548.94;4993840;28;20049;-83
2020/12/14 01:03:46;;;;;;;3.00;1.60;;;;;;;10.17;68.47;100556.03;4992443;28;20062;-84
2020/12/14 01:06:12;;;;;;;6.65;1.88;;;;;;;10.19;68.49;100546.28;4979288;28;20086;-83
2020/12/14 01:08:41;;;;;;;4.32;1.40;;;;;;;10.23;68.46;100544.44;4973081;28;20023;-83
2020/12/14 01:11:09;;;;;;;3.90;1.70;;;;;;;10.07;68.88;100535.09;4971269;28;20041;-82
2020/12/14 01:13:35;;;;;;;5.22;1.67;;;;;;;10.33;68.18;100532.72;4974607;28;20023;-82
2020/12/14 01:16:06;;;;;;;4.88;1.88;;;;;;;10.30;68.45;100535.41;4974049;28;20115;-83
2020/12/14 01:18:32;;;;;;;4.85;2.08;;;;;;;10.34;68.33;100525.63;4972562;28;20430;-83
2020/12/14 01:20:59;;;;;;;4.22;1.85;;;;;;;10.26;69.00;100531.09;4974046;28;20023;-82
2020/12/14 01:23:25;;;;;;;3.75;1.65;;;;;;;10.29;68.89;100524.88;4974634;28;20031;-82
2020/12/14 01:25:52;;;;;;;2.60;1.58;;;;;;;10.40;68.62;100517.56;4973463;28;20552;-82
2020/12/14 01:28:18;;;;;;;4.50;1.92;;;;;;;10.32;68.70;100509.78;4974069;28;20031;-83
2020/12/14 01:30:45;;;;;;;4.93;1.80;;;;;;;10.29;68.84;100509.88;4974044;28;20478;-83
2020/12/14 01:33:11;;;;;;;3.05;2.38;;;;;;;10.36;68.76;100508.81;4974153;28;20031;-83
2020/12/14 01:35:38;;;;;;;5.10;1.77;;;;;;;10.47;68.39;100513.88;4956462;28;20054;-82
2020/12/14 01:38:06;;;;;;;3.88;1.60;;;;;;;10.30;69.24;100518.66;4974092;28;20390;-82
2020/12/14 01:40:33;;;;;;;5.80;2.05;;;;;;;10.25;69.31;100526.72;4973929;28;20057;-84
2020/12/14 01:42:59;;;;;;;6.93;1.92;;;;;;;10.42;68.54;100520.16;4971749;28;20082;-83
2020/12/14 01:45:25;;;;;;;5.93;2.20;;;;;;;10.48;68.51;100520.00;4973354;28;20351;-82
2020/12/14 01:47:52;;;;;;;2.85;1.52;;;;;;;10.36;69.08;100522.06;4974124;28;20109;-83
2020/12/14 01:50:19;;;;;;;5.90;1.75;;;;;;;10.38;69.08;100530.00;4973899;28;20125;-83
2020/12/14 01:52:47;;;;;;;8.43;2.00;;;;;;;10.49;68.70;100533.25;4974066;28;20027;-81
2020/12/14 01:55:18;;;;;;;5.38;1.90;;;;;;;10.47;68.97;100528.91;4974508;28;20034;-82
2020/12/14 01:57:44;;;;;;;6.65;1.98;;;;;;;10.47;68.75;100528.91;4974088;28;20027;-82
2020/12/14 02:00:12;;;;;;;1.98;1.25;;;;;;;10.27;69.27;100529.31;4974007;28;20054;-82
2020/12/14 02:02:39;;;;;;;7.18;1.80;;;;;;;10.37;69.27;100530.91;4973001;28;20050;-82
2020/12/14 02:05:07;;;;;;;8.40;2.28;;;;;;;10.31;69.55;100529.22;4975963;28;20046;-82
2020/12/14 02:07:35;;;;;;;5.93;1.80;;;;;;;10.48;68.98;100533.25;4993118;28;20057;-83
2020/12/14 02:10:02;;;;;;;3.50;1.58;;;;;;;10.43;69.14;100521.91;4993386;28;20510;-82
2020/12/14 02:12:29;;;;;;;3.90;1.67;;;;;;;10.43;69.25;100522.81;4990690;28;20029;-82
2020/12/14 02:14:58;;;;;;;4.13;1.77;;;;;;;10.48;69.06;100520.00;4993195;28;20109;-83
2020/12/14 02:17:25;;;;;;;5.32;2.00;;;;;;;10.45;69.40;100512.16;4990380;28;20034;-83
2020/12/14 02:19:54;;;;;;;7.75;1.90;;;;;;;10.44;69.50;100513.06;4993046;28;20026;-83
2020/12/14 02:22:22;;;;;;;4.15;2.05;;;;;;;10.42;69.77;100521.06;4993107;28;20019;-82
2020/12/14 02:25:08;;;;;;;4.40;1.70;;;;;;;10.33;70.50;100516.81;4989999;28;20061;-83
2020/12/14 02:27:36;;;;;;;4.00;2.10;;;;;;;10.35;70.16;100515.03;4992978;28;20023;-84
2020/12/14 02:30:06;;;;;;;2.90;2.17;;;;;;;10.23;71.14;100510.03;4992962;28;20027;-83
2020/12/14 02:32:33;;;;;;;10.07;2.42;;;;;;;10.24;70.93;100519.66;4992656;28;20030;-83
2020/12/14 02:35:00;;;;;;;9.20;2.63;;;;;;;10.23;71.02;100517.06;4993054;28;20027;-84
2020/12/14 02:37:29;;;;;;;2.72;2.08;;;;;;;10.32;70.64;100509.78;4992672;28;21257;-83
2020/12/14 02:39:56;;;;;;;3.88;2.28;;;;;;;10.22;71.20;100508.28;4990798;28;20549;-83
2020/12/14 02:42:25;;;;;;;7.00;2.78;;;;;;;10.27;71.32;100506.38;4992794;28;20022;-82
2020/12/14 02:44:52;;;;;;;5.53;2.58;;;;;;;10.17;71.64;100504.88;4992383;28;20026;-83
2020/12/14 02:47:32;;;;;;;10.65;3.08;;;;;;;10.22;71.75;100497.69;4992348;28;20113;-81
2020/12/14 02:50:08;;;;;;;6.53;3.22;;;;;;;10.12;72.51;100504.06;4991045;28;20038;-82
2020/12/14 02:52:38;;;;;;;6.55;2.60;;;;;;;10.19;71.84;100503.03;4991991;28;20468;-85
2020/12/14 02:55:07;;;;;;;5.32;2.90;;;;;;;10.17;71.79;100500.44;4996800;28;20085;-86
2020/12/14 02:57:33;;;;;;;8.13;2.90;;;;;;;10.10;72.67;100492.69;4994001;28;20042;-83
2020/12/14 03:00:00;;;;;;;9.27;3.45;;;;;;;10.15;72.46;100493.44;4996819;28;20025;-82
2020/12/14 03:02:26;;;;;;;7.85;3.20;;;;;;;10.09;72.65;100490.94;4996289;28;20030;-83
2020/12/14 03:04:52;;;;;;;6.63;3.40;;;;;;;10.14;72.21;100483.75;4993832;28;20029;-83
2020/12/14 03:07:19;;;;;;;7.10;3.30;;;;;;;10.25;71.92;100481.69;4996278;28;20030;-83
2020/12/14 03:09:45;;;;;;;7.38;3.97;;;;;;;10.17;72.53;100488.97;4996014;28;20027;-82
2020/12/14 03:12:13;;;;;;;11.57;4.47;;;;;;;10.20;72.36;100486.25;4996086;28;20483;-83
2020/12/14 03:14:40;;;;;;;11.38;7.60;;;;;;;10.16;72.60;100481.94;4996331;28;20025;-82
2020/12/14 03:17:06;;;;;;;19.75;10.35;;;;;;;10.13;73.02;100484.66;4995920;28;20028;-83
2020/12/14 03:19:34;;;;;;;26.88;16.05;;;;;;;10.13;72.89;100479.34;4993753;28;20022;-86
2020/12/14 03:22:00;;;;;;;38.53;21.02;;;;;;;10.26;72.54;100478.16;4996206;28;20461;-83
2020/12/14 03:24:26;;;;;;;41.13;25.38;;;;;;;10.24;72.63;100484.41;4996495;28;20034;-83
2020/12/14 03:26:54;;;;;;;43.78;26.70;;;;;;;10.26;72.73;100478.16;4993399;28;20030;-83
2020/12/14 03:29:20;;;;;;;43.58;29.73;;;;;;;10.29;72.78;100470.16;4994991;28;20070;-83
2020/12/14 03:31:47;;;;;;;51.10;31.52;;;;;;;10.18;73.43;100474.81;4994683;28;20389;-83
2020/12/14 03:34:13;;;;;;;53.75;33.90;;;;;;;10.21;73.19;100472.09;4993114;28;20031;-84
2020/12/14 03:36:39;;;;;;;52.83;31.67;;;;;;;10.25;73.31;100475.56;4996037;28;20366;-83
2020/12/14 03:39:07;;;;;;;48.20;30.85;;;;;;;10.21;73.44;100466.81;4995496;28;20121;-86
2020/12/14 03:41:34;;;;;;;49.40;29.20;;;;;;;10.31;73.12;100473.59;4992133;28;20045;-83
2020/12/14 03:44:00;;;;;;;43.33;26.98;;;;;;;10.32;73.08;100470.06;4995330;28;20049;-82
2020/12/14 03:46:28;;;;;;;45.78;23.90;;;;;;;10.33;73.37;100474.44;4995545;28;20034;-84
2020/12/14 03:48:56;;;;;;;28.23;19.27;;;;;;;10.24;73.64;100477.31;4993391;28;20393;-87
2020/12/14 03:51:23;;;;;;;29.73;18.50;;;;;;;10.30;73.49;100471.88;4995166;28;20026;-83
2020/12/14 03:53:50;;;;;;;27.75;15.93;;;;;;;10.27;73.58;100474.59;4995139;28;20029;-83
2020/12/14 03:56:21;;;;;;;20.58;13.70;;;;;;;10.27;73.72;100471.97;4993324;28;20037;-83
2020/12/14 03:58:48;;;;;;;23.60;13.57;;;;;;;10.38;73.27;100470.84;4995046;28;20042;-83
2020/12/14 04:01:19;;;;;;;17.73;10.68;;;;;;;10.29;73.95;100475.44;4993134;28;20101;-83
2020/12/14 04:03:46;;;;;;;15.55;10.32;;;;;;;10.38;73.26;100465.53;4995100;28;20018;-84
2020/12/14 04:06:27;;;;;;;14.60;8.85;;;;;;;10.35;73.62;100467.34;4992405;28;20178;-83
2020/12/14 04:08:54;;;;;;;15.52;9.55;;;;;;;10.40;73.19;100459.28;4992779;28;20117;-82
2020/12/14 04:11:22;;;;;;;11.77;8.05;;;;;;;10.40;73.47;100463.75;4995488;28;20033;-83
2020/12/14 04:13:49;;;;;;;9.63;7.18;;;;;;;10.43;73.32;100459.25;4991431;28;20030;-83
2020/12/14 04:16:15;;;;;;;12.30;8.20;;;;;;;10.36;73.64;100462.94;4995196;28;20474;-83
2020/12/14 04:18:41;;;;;;;13.23;8.07;;;;;;;10.40;73.42;100461.94;4994904;28;20026;-85
2020/12/14 04:21:09;;;;;;;10.25;6.82;;;;;;;10.30;73.94;100458.63;4993363;28;20464;-85
2020/12/14 04:23:36;;;;;;;11.38;6.85;;;;;;;10.47;73.27;100454.72;4994889;28;20081;-85
2020/12/14 04:26:03;;;;;;;10.65;6.95;;;;;;;10.20;74.63;100458.00;4993713;28;20042;-82
2020/12/14 04:28:30;;;;;;;9.18;5.70;;;;;;;10.41;73.82;100460.19;4994626;28;20026;-83
2020/12/14 04:30:56;;;;;;;12.05;7.60;;;;;;;10.40;73.74;100454.00;4993748;28;20138;-82
2020/12/14 04:33:22;;;;;;;11.23;7.35;;;;;;;10.45;73.49;100445.94;4995349;28;20062;-83
2020/12/14 04:35:48;;;;;;;14.48;6.43;;;;;;;10.49;73.44;100452.91;4992992;28;20027;-84
2020/12/14 04:38:15;;;;;;;9.48;6.03;;;;;;;10.45;73.73;100457.41;4995342;28;20030;-85
2020/12/14 04:40:41;;;;;;;10.85;6.35;;;;;;;10.42;73.86;100451.31;4993787;28;20015;-83
2020/12/14 04:43:09;;;;;;;11.13;6.88;;;;;;;10.49;73.61;100453.78;4995026;28;20378;-83
2020/12/14 04:45:36;;;;;;;10.00;6.68;;;;;;;10.44;74.01;100452.16;4991906;28;20331;-85
2020/12/14 04:48:03;;;;;;;9.45;6.57;;;;;;;10.78;72.76;100451.25;4994648;28;20026;-83
2020/12/14 04:50:29;;;;;;;10.63;7.28;;;;;;;10.83;72.72;100452.00;4994272;28;20023;-86
2020/12/14 04:52:56;;;;;;;15.60;7.40;;;;;;;10.72;73.03;100439.06;4994736;28;20099;-84
2020/12/14 04:55:24;;;;;;;9.43;7.45;;;;;;;10.73;73.15;100416.94;4994118;28;20153;-84
2020/12/14 04:57:51;;;;;;;10.15;6.60;;;;;;;10.72;73.33;100419.66;4994212;28;20030;-84
2020/12/14 05:00:19;;;;;;;11.13;7.60;;;;;;;10.82;72.60;100429.06;4993981;28;20116;-83
2020/12/14 05:02:52;;;;;;;11.20;6.80;;;;;;;10.84;72.53;100417.50;4994375;28;20042;-85
2020/12/14 05:05:18;;;;;;;9.88;6.88;;;;;;;10.80;72.84;100414.97;4991885;28;20113;-86
2020/12/14 05:07:45;;;;;;;12.43;7.20;;;;;;;10.71;73.37;100426.72;4994288;28;20038;-86
2020/12/14 05:10:12;;;;;;;11.30;7.60;;;;;;;10.79;73.04;100440.63;4993817;28;20023;-83
2020/12/14 05:12:42;;;;;;;9.25;7.10;;;;;;;10.78;73.24;100445.94;4994211;28;20381;-84
2020/12/14 05:15:19;;;;;;;10.88;7.10;;;;;;;10.94;73.05;100441.97;4993399;28;20034;-86
2020/12/14 05:17:46;;;;;;;9.98;7.00;;;;;;;10.86;73.00;100443.09;4992310;28;20402;-82
2020/12/14 05:20:20;;;;;;;12.40;7.75;;;;;;;10.95;73.26;100441.06;4993017;28;20525;-85
2020/12/14 05:23:07;;;;;;;11.23;8.10;;;;;;;11.08;72.40;100438.03;4993800;28;20033;-83
2020/12/14 05:25:34;;;;;;;12.55;7.00;;;;;;;10.73;73.78;100445.19;4990736;28;20030;-83
2020/12/14 05:28:04;;;;;;;11.80;7.22;;;;;;;10.95;73.20;100445.50;4993832;28;20027;-83
2020/12/14 05:30:51;;;;;;;8.55;6.95;;;;;;;10.57;74.88;100450.94;4993254;28;20081;-83
2020/12/14 05:33:19;;;;;;;12.27;7.47;;;;;;;10.53;75.11;100443.97;4992952;28;20026;-82
2020/12/14 05:35:47;;;;;;;10.23;7.38;;;;;;;10.57;74.96;100445.63;4991569;28;20022;-83
2020/12/14 05:38:25;;;;;;;7.97;6.90;;;;;;;10.67;74.94;100449.75;4993358;28;20046;-83
2020/12/14 05:40:53;;;;;;;8.90;6.95;;;;;;;10.59;75.03;100442.94;4993344;28;20034;-87
2020/12/14 05:43:22;;;;;;;10.27;7.68;;;;;;;10.72;74.85;100448.78;4993732;28;20489;-85
2020/12/14 05:45:50;;;;;;;8.95;6.90;;;;;;;10.58;75.29;100447.38;4993105;28;20034;-83
2020/12/14 05:51:07;;;;;;;8.15;6.60;;;;;;;10.70;74.97;100440.84;5078622;28;21014;-84
2020/12/14 05:53:51;;;;;;;12.55;6.88;;;;;;;10.62;75.52;100437.56;5060076;28;20104;-81
2020/12/14 05:56:18;;;;;;;7.53;6.53;;;;;;;10.95;74.42;100443.72;5050611;28;20028;-86
2020/12/14 05:58:48;;;;;;;8.85;6.47;;;;;;;10.83;74.56;100449.38;5047355;28;20021;-87
2020/12/14 06:01:16;;;;;;;10.35;6.78;;;;;;;10.96;74.26;100440.13;5043950;28;20045;-83
2020/12/14 06:03:43;;;;;;;9.93;6.55;;;;;;;11.04;74.30;100431.09;5046674;28;20084;-86
2020/12/14 06:06:10;;;;;;;10.57;7.20;;;;;;;11.10;74.00;100426.50;5047959;28;20040;-85
2020/12/14 06:09:01;;;;;;;10.77;7.22;;;;;;;11.16;74.12;100398.94;5043461;28;20082;-83
2020/12/14 06:11:27;;;;;;;8.35;7.00;;;;;;;10.92;75.00;100397.88;5044316;28;20036;-81
2020/12/14 06:13:58;;;;;;;12.88;7.97;;;;;;;11.06;74.63;100403.63;5049113;28;20110;-82
2020/12/14 06:16:28;;;;;;;11.55;7.18;;;;;;;11.21;73.79;100404.97;5037462;28;20041;-85
2020/12/14 06:18:56;;;;;;;15.30;7.25;;;;;;;11.19;73.93;100422.72;5044071;28;20038;-83
2020/12/14 06:21:30;;;;;;;11.35;7.57;;;;;;;11.10;74.42;100421.22;5044391;28;20035;-82
2020/12/14 06:26:36;;;;;;;14.35;8.50;;;;;;;11.19;73.92;100428.03;5096607;28;20036;-84
2020/12/14 06:29:03;;;;;;;9.85;7.30;;;;;;;11.11;74.49;100432.66;5099823;28;20034;-84
2020/12/14 06:31:37;;;;;;;11.50;7.75;;;;;;;11.16;74.42;100433.41;5103198;28;20035;-83
2020/12/14 06:34:05;;;;;;;12.65;8.07;;;;;;;11.17;74.19;100436.00;5094680;28;20527;-84
2020/12/14 06:36:40;;;;;;;12.27;8.07;;;;;;;11.28;74.03;100435.69;5095455;28;20120;-84
2020/12/14 06:39:28;;;;;;;10.80;7.78;;;;;;;11.39;73.70;100438.03;5094908;28;20024;-83
2020/12/14 06:42:20;;;;;;;12.55;7.95;;;;;;;11.33;74.12;100436.44;5094626;28;20401;-85
2020/12/14 06:47:38;;;;;;;15.40;8.82;;;;;;;11.30;74.34;100433.00;5069248;27;20881;-82
2020/12/14 06:50:32;;;;;;;14.38;8.82;;;;;;;11.32;74.34;100434.69;5064149;28;20025;-83
2020/12/14 06:53:00;;;;;;;13.00;8.77;;;;;;;11.35;73.96;100438.16;5055267;28;20119;-80
2020/12/14 06:55:46;;;;;;;12.50;9.20;;;;;;;11.39;73.88;100434.50;5052312;28;20107;-83
2020/12/14 06:58:35;;;;;;;12.13;9.38;;;;;;;11.55;73.42;100421.66;5038277;28;20028;-81
2020/12/14 07:01:02;;;;;;;14.32;8.35;;;;;;;11.43;73.47;100437.03;5031626;28;20033;-80
2020/12/14 07:03:32;;;;;;;14.88;10.27;;;;;;;11.37;74.09;100434.56;5047650;28;20025;-78
2020/12/14 07:06:00;;;;;;;11.32;8.15;;;;;;;11.37;73.82;100431.91;5046368;28;20063;-84
2020/12/14 07:08:30;;;;;;;15.30;9.80;;;;;;;11.56;73.90;100431.34;5036335;28;20038;-83
2020/12/14 07:13:53;;;;;;;12.52;8.80;;;;;;;11.47;74.40;100433.34;5081302;28;20843;-83
2020/12/14 07:16:30;;;;;;;12.75;9.13;;;;;;;11.48;74.15;100439.56;5048139;28;20114;-83
2020/12/14 07:18:56;;;;;;;14.30;9.77;;;;;;;11.53;74.42;100431.47;5043019;28;20468;-83
2020/12/14 07:21:22;;;;;;;12.35;9.32;;;;;;;11.66;73.33;100432.78;5049198;28;20026;-86
2020/12/14 07:23:48;;;;;;;13.57;9.85;;;;;;;11.55;74.34;100441.09;5049230;28;20056;-83
2020/12/14 07:26:16;;;;;;;15.18;9.70;;;;;;;11.58;74.07;100446.31;5048897;28;20013;-83
2020/12/14 07:31:24;;;;;;;12.90;9.80;;;;;;;11.60;73.99;100446.25;5059635;27;20920;-81
2020/12/14 07:33:56;;;;;;;16.30;13.15;;;;;;;11.75;73.83;100467.03;5036411;28;20033;-82
2020/12/14 07:36:23;;;;;;;36.60;18.90;;;;;;;11.75;73.40;100455.53;5019188;28;20103;-81
2020/12/14 07:38:52;;;;;;;16.95;10.43;;;;;;;11.80;73.81;100459.78;5018873;28;20430;-83
2020/12/14 07:41:19;;;;;;;11.85;9.77;;;;;;;11.80;73.76;100464.22;5021373;28;20030;-84
2020/12/14 07:43:53;;;;;;;13.07;9.05;;;;;;;11.72;73.84;100474.22;5018029;28;20084;-83
2020/12/14 07:51:48;;;;;;;11.82;8.95;;;;;;;11.78;74.31;100474.03;5070455;27;20851;-84
2020/12/14 07:54:16;;;;;;;14.05;9.35;;;;;;;11.76;74.10;100484.69;5080819;22;20561;-81
2020/12/14 07:59:29;;;;;;;12.90;10.00;;;;;;;11.86;73.67;100495.88;5078492;27;20819;-83
2020/12/14 08:01:56;;;;;;;18.85;11.07;;;;;;;11.89;73.33;100498.44;5070225;28;20474;-83
2020/12/14 08:04:26;;;;;;;12.52;10.75;;;;;;;11.92;73.82;100493.03;5070299;28;20029;-83
2020/12/14 08:06:54;;;;;;;14.93;11.48;;;;;;;11.93;73.57;100509.84;5070443;28;20029;-83
2020/12/14 08:09:24;;;;;;;16.30;11.25;;;;;;;11.88;73.93;100509.97;5070225;28;20079;-82
2020/12/14 08:11:51;;;;;;;17.10;12.55;;;;;;;11.91;73.73;100509.91;5060503;28;20461;-82
2020/12/14 08:14:18;;;;;;;14.75;10.45;;;;;;;11.89;74.32;100506.41;5057671;28;20087;-83
2020/12/14 08:16:46;;;;;;;15.35;12.20;;;;;;;12.03;73.63;100513.97;5058977;28;20041;-83
2020/12/14 08:19:22;;;;;;;17.55;13.52;;;;;;;12.13;73.56;100515.41;5061945;28;20141;-82
2020/12/14 08:22:09;;;;;;;15.02;12.40;;;;;;;12.10;73.65;100504.91;5059833;28;20040;-83
2020/12/14 08:24:37;;;;;;;15.77;12.15;;;;;;;12.12;73.65;100502.19;5061213;28;20026;-83
2020/12/14 08:27:06;;;;;;;13.23;11.80;;;;;;;12.11;73.69;100513.72;5054336;28;20043;-83
2020/12/14 08:29:34;;;;;;;17.05;11.93;;;;;;;12.24;72.98;100498.28;5057686;28;20036;-83
2020/12/14 08:32:01;;;;;;;29.35;23.17;;;;;;;12.17;73.03;100505.56;5054798;28;20037;-83
2020/12/14 08:34:33;;;;;;;28.48;17.98;;;;;;;12.23;73.62;100513.34;5051705;28;20056;-82
2020/12/14 08:37:00;;;;;;;15.75;13.48;;;;;;;12.22;73.55;100510.72;5064998;28;20033;-83
2020/12/14 08:39:26;;;;;;;15.43;12.30;;;;;;;12.37;72.55;100509.38;5069492;28;20017;-83
2020/12/14 08:42:11;;;;;;;13.10;10.90;;;;;;;12.58;72.09;100511.31;5063174;28;20495;-83
2020/12/14 08:44:40;;;;;;;15.07;11.15;;;;;;;12.47;72.37;100516.09;5069257;28;20458;-82
2020/12/14 08:47:15;;;;;;;12.85;11.48;;;;;;;12.35;73.07;100521.81;5061027;28;20073;-82
2020/12/14 08:49:42;;;;;;;13.90;10.85;;;;;;;12.41;72.50;100519.84;5058559;28;20028;-82
2020/12/14 08:52:08;;;;;;;10.93;9.60;;;;;;;12.52;72.88;100519.47;5058038;28;20074;-81
2020/12/14 08:54:34;;;;;;;11.82;9.88;;;;;;;12.48;73.16;100517.00;5057265;28;20478;-82
2020/12/14 08:57:01;;;;;;;12.18;9.85;;;;;;;12.53;72.73;100526.53;5054145;28;20032;-83
2020/12/14 08:59:27;;;;;;;10.50;9.10;;;;;;;12.42;72.71;100523.38;5069205;28;20029;-83
2020/12/14 09:01:57;;;;;;;10.90;8.05;;;;;;;12.53;73.17;100531.00;5064104;28;20021;-82
2020/12/14 09:04:30;;;;;;;9.35;8.45;;;;;;;12.60;72.76;100537.84;5049151;28;20029;-82
2020/12/14 09:06:56;;;;;;;13.75;8.18;;;;;;;12.64;72.41;100528.84;5054854;28;20086;-83
2020/12/14 09:09:35;;;;;;;11.07;8.45;;;;;;;12.75;71.63;100536.47;5051347;28;20022;-82
2020/12/14 09:12:11;;;;;;;9.90;7.78;;;;;;;12.58;72.11;100540.53;5045689;28;20041;-83
2020/12/14 09:14:37;;;;;;;10.40;7.10;;;;;;;12.64;72.34;100539.47;5044282;28;20025;-83
2020/12/14 09:17:17;;;;;;;11.25;7.80;;;;;;;12.70;71.72;100549.03;5046932;28;20025;-83
2020/12/14 09:19:50;;;;;;;8.48;7.60;;;;;;;12.62;72.20;100550.16;5044122;28;20029;-82
2020/12/14 09:22:21;;;;;;;8.70;6.63;;;;;;;12.71;72.30;100553.41;5045621;28;20477;-82
2020/12/14 09:24:48;;;;;;;9.00;6.80;;;;;;;12.74;72.09;100551.53;5043204;28;20033;-82
2020/12/14 09:27:14;;;;;;;8.23;6.80;;;;;;;12.74;71.64;100563.97;5045530;28;20037;-83
2020/12/14 09:29:41;;;;;;;9.10;6.35;;;;;;;12.97;71.14;100570.28;5045882;28;20021;-83
2020/12/14 09:32:10;;;;;;;7.05;6.35;;;;;;;12.90;71.23;100574.94;5042833;28;20029;-82
2020/12/14 09:34:37;;;;;;;8.35;6.90;;;;;;;12.96;71.28;100577.41;5044295;28;20021;-82
2020/12/14 09:37:05;;;;;;;9.05;6.43;;;;;;;12.97;71.27;100583.56;5042622;28;20048;-81
2020/12/14 09:39:32;;;;;;;7.70;6.32;;;;;;;13.06;71.20;100584.13;5042314;28;20017;-82
2020/12/14 09:42:00;;;;;;;6.65;5.80;;;;;;;13.00;71.12;100586.16;5037981;28;20039;-82
2020/12/14 09:44:27;;;;;;;7.30;5.50;;;;;;;13.08;71.44;100586.72;5035308;28;20026;-82
2020/12/14 09:46:54;;;;;;;8.13;6.72;;;;;;;13.17;71.02;100599.72;5035345;28;20029;-81
2020/12/14 09:49:21;;;;;;;7.22;6.20;;;;;;;13.24;70.78;100595.06;5035450;28;20037;-82
2020/12/14 09:51:48;;;;;;;7.10;5.90;;;;;;;13.23;70.56;100582.66;5035327;28;20029;-82
2020/12/14 09:54:14;;;;;;;7.80;6.07;;;;;;;13.18;71.10;100595.28;5034905;28;20116;-83
2020/12/14 09:56:42;;;;;;;6.72;5.75;;;;;;;13.22;71.17;100594.22;5035262;28;20068;-82
2020/12/14 09:59:09;;;;;;;7.25;4.82;;;;;;;13.20;70.55;100591.63;5034445;28;20047;-82
2020/12/14 10:01:35;;;;;;;7.18;5.97;;;;;;;13.16;71.12;100599.75;5041245;28;20060;-83
2020/12/14 10:04:02;;;;;;;9.05;5.55;;;;;;;13.18;70.81;100596.13;5048478;28;20021;-82
2020/12/14 10:06:28;;;;;;;8.13;5.57;;;;;;;13.24;70.68;100609.22;5048865;28;20465;-81
2020/12/14 10:08:55;;;;;;;5.80;5.05;;;;;;;13.33;70.14;100599.19;5041688;28;20030;-82
2020/12/14 10:11:29;;;;;;;6.00;5.40;;;;;;;13.32;70.28;100593.00;5048674;28;20083;-82
2020/12/14 10:13:56;;;;;;;7.25;4.80;;;;;;;13.26;70.48;100595.88;5054771;28;20116;-83
2020/12/14 10:16:22;;;;;;;7.72;5.35;;;;;;;13.21;70.39;100587.19;5045658;28;20456;-82
2020/12/14 10:18:49;;;;;;;6.35;5.63;;;;;;;13.18;70.93;100597.94;5044458;28;20075;-83
2020/12/14 10:21:16;;;;;;;6.50;4.97;;;;;;;13.20;70.43;100596.09;5043406;28;20025;-83
2020/12/14 10:23:43;;;;;;;6.30;4.28;;;;;;;13.19;70.28;100608.50;5046867;28;20058;-82
2020/12/14 10:26:10;;;;;;;6.13;4.15;;;;;;;13.26;70.20;100607.38;5042729;28;20469;-83
2020/12/14 10:28:36;;;;;;;9.30;5.07;;;;;;;13.37;70.14;100603.47;5044960;28;20026;-82
2020/12/14 10:31:05;;;;;;;4.47;4.00;;;;;;;13.43;69.66;100612.16;5036931;28;20037;-83
2020/12/14 10:33:32;;;;;;;6.20;4.15;;;;;;;13.31;69.78;100617.88;5042720;28;20088;-82
2020/12/14 10:36:08;;;;;;;5.93;4.65;;;;;;;13.44;69.50;100613.00;5042856;28;20035;-84
2020/12/14 10:38:34;;;;;;;4.90;4.40;;;;;;;13.56;69.61;100615.22;5043978;28;20026;-81
2020/12/14 10:41:02;;;;;;;7.05;4.72;;;;;;;13.59;69.35;100617.78;5037045;28;20120;-82
2020/12/14 10:43:29;;;;;;;5.10;4.35;;;;;;;13.60;69.11;100618.66;5034472;28;20384;-82
2020/12/14 10:45:56;;;;;;;5.32;4.72;;;;;;;13.60;68.99;100623.97;5033848;28;20022;-82
2020/12/14 10:48:22;;;;;;;5.53;4.28;;;;;;;13.53;69.47;100620.69;5034650;28;20021;-82
2020/12/14 10:50:48;;;;;;;5.50;4.40;;;;;;;13.57;69.25;100627.63;5033925;28;20096;-82
2020/12/14 10:53:15;;;;;;;5.13;4.35;;;;;;;13.73;68.60;100622.59;5041837;28;20083;-84
2020/12/14 10:55:41;;;;;;;5.53;4.40;;;;;;;13.59;68.88;100623.13;5043498;28;20025;-82
2020/12/14 10:58:07;;;;;;;7.93;4.70;;;;;;;13.67;68.50;100629.94;5042821;28;20075;-83
2020/12/14 11:00:34;;;;;;;5.93;4.57;;;;;;;13.68;68.55;100631.69;5048298;28;20055;-82
2020/12/14 11:03:00;;;;;;;7.57;4.93;;;;;;;13.64;68.53;100622.06;5043339;28;20445;-82
2020/12/14 11:05:27;;;;;;;6.68;4.85;;;;;;;13.68;68.78;100624.56;5048772;28;20033;-83
2020/12/14 11:07:54;;;;;;;8.02;4.93;;;;;;;13.69;68.63;100623.63;5042600;28;20079;-82
2020/12/14 11:10:21;;;;;;;9.07;5.07;;;;;;;13.67;68.91;100629.94;5039242;28;20041;-82
2020/12/14 11:12:47;;;;;;;5.07;4.57;;;;;;;13.87;68.13;100630.09;5045448;28;20672;-82
2020/12/14 11:15:14;;;;;;;7.18;5.05;;;;;;;13.67;68.88;100627.28;5039132;28;20432;-82
2020/12/14 11:17:40;;;;;;;7.25;4.72;;;;;;;13.72;68.30;100619.97;5033566;28;20045;-81
2020/12/14 11:20:09;;;;;;;9.60;5.10;;;;;;;13.69;68.17;100625.44;5033563;28;20405;-80
2020/12/14 11:22:38;;;;;;;5.05;4.43;;;;;;;13.62;68.38;100631.91;5033137;28;20045;-87
2020/12/14 11:25:06;;;;;;;5.28;4.53;;;;;;;13.51;68.59;100640.28;5033398;28;20045;-83
2020/12/14 11:27:33;;;;;;;6.88;4.90;;;;;;;13.46;68.67;100628.91;5035251;28;20037;-82
2020/12/14 11:29:59;;;;;;;9.65;5.30;;;;;;;13.45;69.01;100633.38;5041091;28;20048;-81
2020/12/14 11:32:26;;;;;;;6.55;5.05;;;;;;;13.46;69.09;100624.47;5040465;28;20493;-82
2020/12/14 11:34:52;;;;;;;8.05;5.40;;;;;;;13.51;69.15;100625.19;5042776;28;20116;-82
2020/12/14 11:37:18;;;;;;;7.50;4.78;;;;;;;13.47;69.26;100626.22;5041729;28;20044;-81
2020/12/14 11:39:45;;;;;;;6.00;5.03;;;;;;;13.58;68.72;100628.47;5042269;28;20055;-83
2020/12/14 11:42:12;;;;;;;11.90;6.75;;;;;;;13.61;68.76;100633.72;5039304;28;20480;-81
2020/12/14 11:44:38;;;;;;;5.15;4.65;;;;;;;13.93;67.48;100639.63;5038778;28;20033;-81
2020/12/14 11:47:04;;;;;;;5.45;4.85;;;;;;;14.00;67.28;100635.81;5035538;28;20032;-82
2020/12/14 11:49:31;;;;;;;7.18;5.00;;;;;;;14.03;67.32;100632.16;5037547;28;20100;-82